sensor_id;sensor_type;location;lat;lon;timestamp;temperature;humidity
38606;DHT22;24365;48.446;8.850;2023-04-03T00:10:21;3.80;69.50
38606;DHT22;24365;48.446;8.850;2023-04-03T00:15:22;3.90;69.50
38606;DHT22;24365;48.446;8.850;2023-04-03T00:20:23;3.90;68.20
38606;DHT22;24365;48.446;8.850;2023-04-03T00:25:24;3.80;68.60
38606;DHT22;24365;48.446;8.850;2023-04-03T00:30:25;3.80;68.40
38606;DHT22;24365;48.446;8.850;2023-04-03T00:35:26;3.80;68.40
38606;DHT22;24365;48.446;8.850;2023-04-03T00:40:27;3.70;67.00
38606;DHT22;24365;48.446;8.850;2023-04-03T00:50:32;3.80;66.40
38606;DHT22;24365;48.446;8.850;2023-04-03T00:55:35;3.70;67.00
38606;DHT22;24365;48.446;8.850;2023-04-03T01:00:37;3.80;67.50
38606;DHT22;24365;48.446;8.850;2023-04-03T01:05:39;3.80;67.10
38606;DHT22;24365;48.446;8.850;2023-04-03T01:10:41;3.80;65.30
38606;DHT22;24365;48.446;8.850;2023-04-03T01:15:42;3.80;65.90
38606;DHT22;24365;48.446;8.850;2023-04-03T01:25:48;3.80;64.00
38606;DHT22;24365;48.446;8.850;2023-04-03T01:35:51;3.80;64.70
38606;DHT22;24365;48.446;8.850;2023-04-03T01:40:52;3.80;64.70
38606;DHT22;24365;48.446;8.850;2023-04-03T01:45:53;3.80;65.80
38606;DHT22;24365;48.446;8.850;2023-04-03T01:50:55;3.80;63.70
38606;DHT22;24365;48.446;8.850;2023-04-03T01:55:56;3.70;63.00
38606;DHT22;24365;48.446;8.850;2023-04-03T02:00:57;3.70;63.90
38606;DHT22;24365;48.446;8.850;2023-04-03T02:05:59;3.60;63.40
38606;DHT22;24365;48.446;8.850;2023-04-03T02:11:00;3.60;63.70
38606;DHT22;24365;48.446;8.850;2023-04-03T02:16:08;3.50;63.80
38606;DHT22;24365;48.446;8.850;2023-04-03T02:21:10;3.50;64.30
38606;DHT22;24365;48.446;8.850;2023-04-03T02:26:12;3.50;64.00
38606;DHT22;24365;48.446;8.850;2023-04-03T02:31:13;3.50;64.20
38606;DHT22;24365;48.446;8.850;2023-04-03T02:36:16;3.50;63.70
38606;DHT22;24365;48.446;8.850;2023-04-03T02:41:21;3.50;64.70
38606;DHT22;24365;48.446;8.850;2023-04-03T02:46:23;3.50;64.10
38606;DHT22;24365;48.446;8.850;2023-04-03T02:51:25;3.50;63.70
38606;DHT22;24365;48.446;8.850;2023-04-03T02:56:27;3.40;63.20
38606;DHT22;24365;48.446;8.850;2023-04-03T03:01:28;3.50;63.20
38606;DHT22;24365;48.446;8.850;2023-04-03T03:06:33;3.30;63.10
38606;DHT22;24365;48.446;8.850;2023-04-03T03:11:34;3.40;62.40
38606;DHT22;24365;48.446;8.850;2023-04-03T03:16:36;3.30;62.80
38606;DHT22;24365;48.446;8.850;2023-04-03T03:21:37;3.30;61.70
38606;DHT22;24365;48.446;8.850;2023-04-03T03:26:38;3.30;60.70
38606;DHT22;24365;48.446;8.850;2023-04-03T03:31:39;3.30;60.90
38606;DHT22;24365;48.446;8.850;2023-04-03T03:36:41;3.20;60.00
38606;DHT22;24365;48.446;8.850;2023-04-03T03:41:42;3.20;60.10
38606;DHT22;24365;48.446;8.850;2023-04-03T03:46:43;3.20;60.80
38606;DHT22;24365;48.446;8.850;2023-04-03T03:51:44;3.10;60.90
38606;DHT22;24365;48.446;8.850;2023-04-03T03:56:46;3.10;61.30
38606;DHT22;24365;48.446;8.850;2023-04-03T04:01:47;3.10;61.70
38606;DHT22;24365;48.446;8.850;2023-04-03T04:06:48;3.00;61.40
38606;DHT22;24365;48.446;8.850;2023-04-03T04:11:49;3.10;61.80
38606;DHT22;24365;48.446;8.850;2023-04-03T04:16:51;3.10;62.20
38606;DHT22;24365;48.446;8.850;2023-04-03T04:21:57;3.10;62.00
38606;DHT22;24365;48.446;8.850;2023-04-03T04:26:58;3.00;62.50
38606;DHT22;24365;48.446;8.850;2023-04-03T04:32:00;3.10;62.00
38606;DHT22;24365;48.446;8.850;2023-04-03T04:37:02;3.00;62.00
38606;DHT22;24365;48.446;8.850;2023-04-03T04:42:03;3.00;61.60
38606;DHT22;24365;48.446;8.850;2023-04-03T04:47:07;3.00;61.30
38606;DHT22;24365;48.446;8.850;2023-04-03T04:52:08;3.00;61.50
38606;DHT22;24365;48.446;8.850;2023-04-03T04:57:10;3.00;62.20
38606;DHT22;24365;48.446;8.850;2023-04-03T05:02:11;3.00;61.40
38606;DHT22;24365;48.446;8.850;2023-04-03T05:07:14;3.00;61.80
38606;DHT22;24365;48.446;8.850;2023-04-03T05:12:16;3.00;61.80
38606;DHT22;24365;48.446;8.850;2023-04-03T05:17:23;3.00;62.10
38606;DHT22;24365;48.446;8.850;2023-04-03T05:22:27;3.00;61.30
38606;DHT22;24365;48.446;8.850;2023-04-03T05:27:32;3.00;61.40
38606;DHT22;24365;48.446;8.850;2023-04-03T05:32:34;3.00;61.40
38606;DHT22;24365;48.446;8.850;2023-04-03T05:37:47;3.00;61.10
38606;DHT22;24365;48.446;8.850;2023-04-03T05:42:49;3.00;61.50
38606;DHT22;24365;48.446;8.850;2023-04-03T05:47:52;3.10;61.20
38606;DHT22;24365;48.446;8.850;2023-04-03T05:52:55;3.00;60.80
38606;DHT22;24365;48.446;8.850;2023-04-03T05:57:57;3.10;60.50
38606;DHT22;24365;48.446;8.850;2023-04-03T06:02:58;3.10;60.00
38606;DHT22;24365;48.446;8.850;2023-04-03T06:08:00;3.10;60.20
38606;DHT22;24365;48.446;8.850;2023-04-03T06:13:01;3.10;60.90
38606;DHT22;24365;48.446;8.850;2023-04-03T06:18:03;3.20;60.00
38606;DHT22;24365;48.446;8.850;2023-04-03T06:23:04;3.20;58.90
38606;DHT22;24365;48.446;8.850;2023-04-03T06:28:05;3.20;57.90
38606;DHT22;24365;48.446;8.850;2023-04-03T06:33:06;3.20;57.90
38606;DHT22;24365;48.446;8.850;2023-04-03T06:38:07;3.20;57.10
38606;DHT22;24365;48.446;8.850;2023-04-03T06:43:10;3.30;56.00
38606;DHT22;24365;48.446;8.850;2023-04-03T06:48:11;3.40;55.70
38606;DHT22;24365;48.446;8.850;2023-04-03T06:53:12;3.50;54.50
38606;DHT22;24365;48.446;8.850;2023-04-03T06:58:13;3.50;54.10
38606;DHT22;24365;48.446;8.850;2023-04-03T07:03:16;3.50;52.70
38606;DHT22;24365;48.446;8.850;2023-04-03T07:08:18;3.60;51.90
38606;DHT22;24365;48.446;8.850;2023-04-03T07:13:19;3.60;49.60
38606;DHT22;24365;48.446;8.850;2023-04-03T07:18:23;3.70;49.90
38606;DHT22;24365;48.446;8.850;2023-04-03T07:23:30;3.70;50.30
38606;DHT22;24365;48.446;8.850;2023-04-03T07:28:31;3.70;50.40
38606;DHT22;24365;48.446;8.850;2023-04-03T07:33:33;3.80;49.50
38606;DHT22;24365;48.446;8.850;2023-04-03T07:38:37;3.90;49.90
38606;DHT22;24365;48.446;8.850;2023-04-03T07:43:40;3.90;50.60
38606;DHT22;24365;48.446;8.850;2023-04-03T07:48:42;4.10;49.80
38606;DHT22;24365;48.446;8.850;2023-04-03T07:53:44;4.20;49.90
38606;DHT22;24365;48.446;8.850;2023-04-03T07:58:46;4.30;49.40
38606;DHT22;24365;48.446;8.850;2023-04-03T08:03:50;4.40;48.30
38606;DHT22;24365;48.446;8.850;2023-04-03T08:08:51;4.50;49.20
38606;DHT22;24365;48.446;8.850;2023-04-03T08:13:53;4.60;44.90
38606;DHT22;24365;48.446;8.850;2023-04-03T08:18:56;4.70;44.40
38606;DHT22;24365;48.446;8.850;2023-04-03T08:23:57;4.80;44.90
38606;DHT22;24365;48.446;8.850;2023-04-03T08:28:58;4.90;43.20
38606;DHT22;24365;48.446;8.850;2023-04-03T08:33:59;5.00;44.10
38606;DHT22;24365;48.446;8.850;2023-04-03T08:39:01;5.10;44.70
38606;DHT22;24365;48.446;8.850;2023-04-03T08:44:14;5.20;43.70
38606;DHT22;24365;48.446;8.850;2023-04-03T08:49:31;5.30;43.50
38606;DHT22;24365;48.446;8.850;2023-04-03T08:54:33;5.30;44.80
38606;DHT22;24365;48.446;8.850;2023-04-03T08:59:37;5.30;45.90
38606;DHT22;24365;48.446;8.850;2023-04-03T09:04:38;5.40;45.30
38606;DHT22;24365;48.446;8.850;2023-04-03T09:09:43;5.40;43.80
38606;DHT22;24365;48.446;8.850;2023-04-03T09:15:27;5.40;44.80
38606;DHT22;24365;48.446;8.850;2023-04-03T09:30:15;5.60;44.90
38606;DHT22;24365;48.446;8.850;2023-04-03T09:35:26;5.70;44.70
38606;DHT22;24365;48.446;8.850;2023-04-03T09:40:34;5.90;44.10
38606;DHT22;24365;48.446;8.850;2023-04-03T09:45:35;5.90;42.00
38606;DHT22;24365;48.446;8.850;2023-04-03T09:55:53;6.10;41.90
38606;DHT22;24365;48.446;8.850;2023-04-03T10:00:55;6.20;40.90
38606;DHT22;24365;48.446;8.850;2023-04-03T10:05:56;6.20;40.20
38606;DHT22;24365;48.446;8.850;2023-04-03T10:11:15;6.20;40.20
38606;DHT22;24365;48.446;8.850;2023-04-03T10:16:18;6.20;41.20
38606;DHT22;24365;48.446;8.850;2023-04-03T10:26:35;6.20;39.90
38606;DHT22;24365;48.446;8.850;2023-04-03T10:31:46;6.30;40.10
38606;DHT22;24365;48.446;8.850;2023-04-03T10:52:25;6.70;39.00
38606;DHT22;24365;48.446;8.850;2023-04-03T10:57:29;6.70;39.20
38606;DHT22;24365;48.446;8.850;2023-04-03T11:07:51;6.60;38.70
38606;DHT22;24365;48.446;8.850;2023-04-03T11:12:56;6.70;39.40
38606;DHT22;24365;48.446;8.850;2023-04-03T11:18:01;7.00;39.90
38606;DHT22;24365;48.446;8.850;2023-04-03T11:23:04;7.10;38.30
38606;DHT22;24365;48.446;8.850;2023-04-03T11:38:50;6.80;37.20
38606;DHT22;24365;48.446;8.850;2023-04-03T11:44:04;6.70;38.10
38606;DHT22;24365;48.446;8.850;2023-04-03T11:49:08;6.70;38.20
38606;DHT22;24365;48.446;8.850;2023-04-03T11:54:46;6.80;37.10
38606;DHT22;24365;48.446;8.850;2023-04-03T11:59:47;6.70;38.00
38606;DHT22;24365;48.446;8.850;2023-04-03T12:05:24;6.70;37.90
38606;DHT22;24365;48.446;8.850;2023-04-03T12:10:14;6.70;37.40
38606;DHT22;24365;48.446;8.850;2023-04-03T12:15:25;6.70;36.90
38606;DHT22;24365;48.446;8.850;2023-04-03T12:25:47;6.80;37.30
38606;DHT22;24365;48.446;8.850;2023-04-03T12:30:50;7.00;37.10
38606;DHT22;24365;48.446;8.850;2023-04-03T12:35:56;7.10;36.50
38606;DHT22;24365;48.446;8.850;2023-04-03T12:46:15;6.90;36.50
38606;DHT22;24365;48.446;8.850;2023-04-03T12:51:22;6.90;36.60
38606;DHT22;24365;48.446;8.850;2023-04-03T12:56:24;6.80;37.30
38606;DHT22;24365;48.446;8.850;2023-04-03T13:01:26;6.70;37.50
38606;DHT22;24365;48.446;8.850;2023-04-03T13:06:28;6.60;37.60
38606;DHT22;24365;48.446;8.850;2023-04-03T13:11:39;6.60;37.40
38606;DHT22;24365;48.446;8.850;2023-04-03T13:16:41;6.60;38.10
38606;DHT22;24365;48.446;8.850;2023-04-03T13:21:42;6.80;38.00
38606;DHT22;24365;48.446;8.850;2023-04-03T13:26:44;6.80;36.60
38606;DHT22;24365;48.446;8.850;2023-04-03T13:31:45;6.90;37.00
38606;DHT22;24365;48.446;8.850;2023-04-03T13:41:55;7.00;36.40
38606;DHT22;24365;48.446;8.850;2023-04-03T13:47:01;7.00;36.40
38606;DHT22;24365;48.446;8.850;2023-04-03T13:57:21;6.80;37.30
38606;DHT22;24365;48.446;8.850;2023-04-03T14:02:28;6.90;37.20
38606;DHT22;24365;48.446;8.850;2023-04-03T14:07:30;7.00;36.00
38606;DHT22;24365;48.446;8.850;2023-04-03T14:12:35;7.00;36.00
38606;DHT22;24365;48.446;8.850;2023-04-03T14:17:37;6.90;36.60
38606;DHT22;24365;48.446;8.850;2023-04-03T14:22:39;6.80;36.60
38606;DHT22;24365;48.446;8.850;2023-04-03T14:27:41;6.70;36.80
38606;DHT22;24365;48.446;8.850;2023-04-03T14:32:42;6.70;36.70
38606;DHT22;24365;48.446;8.850;2023-04-03T14:37:43;6.70;36.90
38606;DHT22;24365;48.446;8.850;2023-04-03T14:42:44;6.70;36.60
38606;DHT22;24365;48.446;8.850;2023-04-03T14:47:46;6.70;35.30
38606;DHT22;24365;48.446;8.850;2023-04-03T14:52:48;6.70;36.20
38606;DHT22;24365;48.446;8.850;2023-04-03T14:57:49;6.70;36.60
38606;DHT22;24365;48.446;8.850;2023-04-03T15:02:50;6.70;35.40
38606;DHT22;24365;48.446;8.850;2023-04-03T15:07:57;6.60;35.20
38606;DHT22;24365;48.446;8.850;2023-04-03T15:13:01;6.60;36.10
38606;DHT22;24365;48.446;8.850;2023-04-03T15:18:03;6.70;36.20
38606;DHT22;24365;48.446;8.850;2023-04-03T15:23:05;6.70;35.40
38606;DHT22;24365;48.446;8.850;2023-04-03T15:28:08;6.80;35.60
38606;DHT22;24365;48.446;8.850;2023-04-03T15:33:09;6.80;35.60
38606;DHT22;24365;48.446;8.850;2023-04-03T15:38:10;6.80;36.20
38606;DHT22;24365;48.446;8.850;2023-04-03T15:43:11;6.60;37.00
38606;DHT22;24365;48.446;8.850;2023-04-03T15:48:12;6.60;35.60
38606;DHT22;24365;48.446;8.850;2023-04-03T15:53:14;6.50;36.00
38606;DHT22;24365;48.446;8.850;2023-04-03T15:58:16;6.40;35.60
38606;DHT22;24365;48.446;8.850;2023-04-03T16:03:18;6.40;35.80
38606;DHT22;24365;48.446;8.850;2023-04-03T16:08:20;6.40;35.80
38606;DHT22;24365;48.446;8.850;2023-04-03T16:13:21;6.40;35.40
38606;DHT22;24365;48.446;8.850;2023-04-03T16:18:24;6.50;36.40
38606;DHT22;24365;48.446;8.850;2023-04-03T16:23:26;6.60;36.00
38606;DHT22;24365;48.446;8.850;2023-04-03T16:28:26;6.50;35.70
38606;DHT22;24365;48.446;8.850;2023-04-03T16:33:28;6.50;36.00
38606;DHT22;24365;48.446;8.850;2023-04-03T16:38:29;6.40;35.80
38606;DHT22;24365;48.446;8.850;2023-04-03T16:43:31;6.20;36.80
38606;DHT22;24365;48.446;8.850;2023-04-03T16:48:32;6.10;36.20
38606;DHT22;24365;48.446;8.850;2023-04-03T16:53:33;6.00;36.30
38606;DHT22;24365;48.446;8.850;2023-04-03T16:58:34;5.90;37.40
38606;DHT22;24365;48.446;8.850;2023-04-03T17:03:35;5.90;36.60
38606;DHT22;24365;48.446;8.850;2023-04-03T17:08:36;5.90;36.80
38606;DHT22;24365;48.446;8.850;2023-04-03T17:13:37;5.70;37.00
38606;DHT22;24365;48.446;8.850;2023-04-03T17:18:38;5.70;36.80
38606;DHT22;24365;48.446;8.850;2023-04-03T17:23:40;5.60;36.80
38606;DHT22;24365;48.446;8.850;2023-04-03T17:28:41;5.60;37.00
38606;DHT22;24365;48.446;8.850;2023-04-03T17:33:44;5.50;37.20
38606;DHT22;24365;48.446;8.850;2023-04-03T17:38:45;5.50;37.40
38606;DHT22;24365;48.446;8.850;2023-04-03T17:43:49;5.40;37.10
38606;DHT22;24365;48.446;8.850;2023-04-03T17:48:50;5.30;37.00
38606;DHT22;24365;48.446;8.850;2023-04-03T17:53:53;5.20;37.70
38606;DHT22;24365;48.446;8.850;2023-04-03T17:58:54;5.20;38.90
38606;DHT22;24365;48.446;8.850;2023-04-03T18:03:56;5.00;38.40
38606;DHT22;24365;48.446;8.850;2023-04-03T18:09:00;4.90;38.30
38606;DHT22;24365;48.446;8.850;2023-04-03T18:14:03;4.80;39.20
38606;DHT22;24365;48.446;8.850;2023-04-03T18:19:04;4.80;39.70
38606;DHT22;24365;48.446;8.850;2023-04-03T18:24:09;4.70;39.80
38606;DHT22;24365;48.446;8.850;2023-04-03T18:29:11;4.60;39.30
38606;DHT22;24365;48.446;8.850;2023-04-03T18:34:12;4.60;39.40
38606;DHT22;24365;48.446;8.850;2023-04-03T18:39:13;4.50;39.70
38606;DHT22;24365;48.446;8.850;2023-04-03T18:44:16;4.50;40.90
38606;DHT22;24365;48.446;8.850;2023-04-03T18:49:18;4.50;41.20
38606;DHT22;24365;48.446;8.850;2023-04-03T18:54:19;4.40;42.00
38606;DHT22;24365;48.446;8.850;2023-04-03T18:59:25;4.40;42.10
38606;DHT22;24365;48.446;8.850;2023-04-03T19:04:27;4.30;42.10
38606;DHT22;24365;48.446;8.850;2023-04-03T19:09:28;4.30;43.30
38606;DHT22;24365;48.446;8.850;2023-04-03T19:14:29;4.30;44.20
38606;DHT22;24365;48.446;8.850;2023-04-03T19:19:30;4.30;44.40
38606;DHT22;24365;48.446;8.850;2023-04-03T19:24:31;4.20;44.20
38606;DHT22;24365;48.446;8.850;2023-04-03T19:29:32;4.20;44.70
38606;DHT22;24365;48.446;8.850;2023-04-03T19:34:34;4.20;45.40
38606;DHT22;24365;48.446;8.850;2023-04-03T19:39:36;4.20;46.10
38606;DHT22;24365;48.446;8.850;2023-04-03T19:44:37;4.20;46.50
38606;DHT22;24365;48.446;8.850;2023-04-03T19:49:39;4.20;46.30
38606;DHT22;24365;48.446;8.850;2023-04-03T19:54:40;4.20;46.40
38606;DHT22;24365;48.446;8.850;2023-04-03T19:59:48;4.10;47.10
38606;DHT22;24365;48.446;8.850;2023-04-03T20:04:49;4.10;46.90
38606;DHT22;24365;48.446;8.850;2023-04-03T20:09:50;4.00;46.50
38606;DHT22;24365;48.446;8.850;2023-04-03T20:14:51;3.90;47.10
38606;DHT22;24365;48.446;8.850;2023-04-03T20:19:52;3.90;46.60
38606;DHT22;24365;48.446;8.850;2023-04-03T20:24:53;3.80;45.60
38606;DHT22;24365;48.446;8.850;2023-04-03T20:29:54;3.70;46.40
38606;DHT22;24365;48.446;8.850;2023-04-03T20:34:55;3.60;44.80
38606;DHT22;24365;48.446;8.850;2023-04-03T20:39:57;3.60;44.50
38606;DHT22;24365;48.446;8.850;2023-04-03T20:44:58;3.50;44.70
38606;DHT22;24365;48.446;8.850;2023-04-03T20:50:01;3.30;44.10
38606;DHT22;24365;48.446;8.850;2023-04-03T20:55:02;3.30;44.00
38606;DHT22;24365;48.446;8.850;2023-04-03T21:00:03;3.30;43.80
38606;DHT22;24365;48.446;8.850;2023-04-03T21:05:05;3.20;43.30
38606;DHT22;24365;48.446;8.850;2023-04-03T21:20:47;3.00;43.40
38606;DHT22;24365;48.446;8.850;2023-04-03T21:25:49;3.00;43.40
38606;DHT22;24365;48.446;8.850;2023-04-03T21:30:50;2.90;44.00
38606;DHT22;24365;48.446;8.850;2023-04-03T21:35:50;2.90;43.60
38606;DHT22;24365;48.446;8.850;2023-04-03T21:40:57;2.70;43.80
38606;DHT22;24365;48.446;8.850;2023-04-03T21:45:58;2.60;44.50
38606;DHT22;24365;48.446;8.850;2023-04-03T21:51:05;2.60;45.00
38606;DHT22;24365;48.446;8.850;2023-04-03T21:56:06;2.50;43.80
38606;DHT22;24365;48.446;8.850;2023-04-03T22:01:09;2.50;43.70
38606;DHT22;24365;48.446;8.850;2023-04-03T22:06:11;2.60;43.80
38606;DHT22;24365;48.446;8.850;2023-04-03T22:11:12;2.60;43.60
38606;DHT22;24365;48.446;8.850;2023-04-03T22:16:14;2.50;43.60
38606;DHT22;24365;48.446;8.850;2023-04-03T22:21:15;2.40;43.30
38606;DHT22;24365;48.446;8.850;2023-04-03T22:26:16;2.30;43.50
38606;DHT22;24365;48.446;8.850;2023-04-03T22:31:17;2.30;44.10
38606;DHT22;24365;48.446;8.850;2023-04-03T22:36:18;2.20;44.60
38606;DHT22;24365;48.446;8.850;2023-04-03T22:41:19;2.10;44.60
38606;DHT22;24365;48.446;8.850;2023-04-03T22:46:20;2.00;44.70
38606;DHT22;24365;48.446;8.850;2023-04-03T22:51:22;1.90;45.10
38606;DHT22;24365;48.446;8.850;2023-04-03T22:56:23;1.80;45.30
38606;DHT22;24365;48.446;8.850;2023-04-03T23:01:24;1.80;46.00
38606;DHT22;24365;48.446;8.850;2023-04-03T23:06:25;1.70;46.30
38606;DHT22;24365;48.446;8.850;2023-04-03T23:11:26;1.70;46.80
38606;DHT22;24365;48.446;8.850;2023-04-03T23:16:27;1.70;47.10
38606;DHT22;24365;48.446;8.850;2023-04-03T23:21:28;1.60;47.10
38606;DHT22;24365;48.446;8.850;2023-04-03T23:26:30;1.50;47.40
38606;DHT22;24365;48.446;8.850;2023-04-03T23:31:32;1.50;47.80
38606;DHT22;24365;48.446;8.850;2023-04-03T23:36:32;1.40;48.00
38606;DHT22;24365;48.446;8.850;2023-04-03T23:41:33;1.50;49.00
38606;DHT22;24365;48.446;8.850;2023-04-03T23:46:34;1.50;48.90
38606;DHT22;24365;48.446;8.850;2023-04-03T23:51:35;1.50;48.50
38606;DHT22;24365;48.446;8.850;2023-04-03T23:56:36;1.50;48.80
